sensor_id;sensor_type;location;lat;lon;timestamp;temperature;humidity
6538;DHT22;3302;52.508;13.454;2022-10-15T00:01:41;13.10;99.90
6538;DHT22;3302;52.508;13.454;2022-10-15T00:04:07;13.10;99.90
6538;DHT22;3302;52.508;13.454;2022-10-15T00:06:33;13.00;99.90
6538;DHT22;3302;52.508;13.454;2022-10-15T00:08:59;13.00;99.90
6538;DHT22;3302;52.508;13.454;2022-10-15T00:11:26;13.00;99.90
6538;DHT22;3302;52.508;13.454;2022-10-15T00:13:54;12.90;99.90
6538;DHT22;3302;52.508;13.454;2022-10-15T00:16:23;12.90;99.90
6538;DHT22;3302;52.508;13.454;2022-10-15T00:18:50;12.90;99.90
6538;DHT22;3302;52.508;13.454;2022-10-15T00:21:19;12.80;99.90
6538;DHT22;3302;52.508;13.454;2022-10-15T00:23:45;12.80;99.90
6538;DHT22;3302;52.508;13.454;2022-10-15T00:26:13;12.80;99.90
6538;DHT22;3302;52.508;13.454;2022-10-15T00:28:40;12.80;99.90
6538;DHT22;3302;52.508;13.454;2022-10-15T00:31:11;12.80;99.90
6538;DHT22;3302;52.508;13.454;2022-10-15T00:33:37;12.80;99.90
6538;DHT22;3302;52.508;13.454;2022-10-15T00:36:12;12.70;99.90
6538;DHT22;3302;52.508;13.454;2022-10-15T00:38:38;12.70;99.90
6538;DHT22;3302;52.508;13.454;2022-10-15T00:41:06;12.80;99.90
6538;DHT22;3302;52.508;13.454;2022-10-15T00:43:35;12.80;99.90
6538;DHT22;3302;52.508;13.454;2022-10-15T00:46:02;12.70;99.90
6538;DHT22;3302;52.508;13.454;2022-10-15T00:48:29;12.70;99.90
6538;DHT22;3302;52.508;13.454;2022-10-15T00:50:57;12.70;99.90
6538;DHT22;3302;52.508;13.454;2022-10-15T00:53:23;12.70;99.90
6538;DHT22;3302;52.508;13.454;2022-10-15T00:55:49;12.70;99.90
6538;DHT22;3302;52.508;13.454;2022-10-15T00:58:20;12.80;99.90
6538;DHT22;3302;52.508;13.454;2022-10-15T01:00:53;12.80;99.90
6538;DHT22;3302;52.508;13.454;2022-10-15T01:03:19;12.90;99.90
6538;DHT22;3302;52.508;13.454;2022-10-15T01:05:48;12.80;99.90
6538;DHT22;3302;52.508;13.454;2022-10-15T01:08:14;12.80;99.90
6538;DHT22;3302;52.508;13.454;2022-10-15T01:16:45;12.70;99.90
6538;DHT22;3302;52.508;13.454;2022-10-15T01:22:35;12.80;99.90
6538;DHT22;3302;52.508;13.454;2022-10-15T01:25:28;12.80;99.90
6538;DHT22;3302;52.508;13.454;2022-10-15T01:30:56;12.80;99.90
6538;DHT22;3302;52.508;13.454;2022-10-15T01:33:48;12.80;99.90
6538;DHT22;3302;52.508;13.454;2022-10-15T01:36:32;12.80;99.90
6538;DHT22;3302;52.508;13.454;2022-10-15T01:39:05;12.80;99.90
6538;DHT22;3302;52.508;13.454;2022-10-15T01:46:40;12.80;99.90
6538;DHT22;3302;52.508;13.454;2022-10-15T01:49:09;12.80;99.90
6538;DHT22;3302;52.508;13.454;2022-10-15T01:51:37;12.80;99.90
6538;DHT22;3302;52.508;13.454;2022-10-15T01:54:07;12.80;99.90
6538;DHT22;3302;52.508;13.454;2022-10-15T01:56:36;12.80;99.90
6538;DHT22;3302;52.508;13.454;2022-10-15T01:59:03;12.80;99.90
6538;DHT22;3302;52.508;13.454;2022-10-15T02:01:29;12.80;99.90
6538;DHT22;3302;52.508;13.454;2022-10-15T02:03:55;12.80;99.90
6538;DHT22;3302;52.508;13.454;2022-10-15T02:06:36;12.80;99.90
6538;DHT22;3302;52.508;13.454;2022-10-15T02:12:11;12.80;99.90
6538;DHT22;3302;52.508;13.454;2022-10-15T02:14:56;12.80;99.90
6538;DHT22;3302;52.508;13.454;2022-10-15T02:17:33;12.80;99.90
6538;DHT22;3302;52.508;13.454;2022-10-15T02:20:17;12.80;99.90
6538;DHT22;3302;52.508;13.454;2022-10-15T02:23:18;12.90;99.90
6538;DHT22;3302;52.508;13.454;2022-10-15T02:25:46;12.80;99.90
6538;DHT22;3302;52.508;13.454;2022-10-15T02:28:13;12.80;99.90
6538;DHT22;3302;52.508;13.454;2022-10-15T02:30:44;12.80;99.90
6538;DHT22;3302;52.508;13.454;2022-10-15T02:33:10;12.80;99.90
6538;DHT22;3302;52.508;13.454;2022-10-15T02:35:37;12.80;99.90
6538;DHT22;3302;52.508;13.454;2022-10-15T02:38:06;12.80;99.90
6538;DHT22;3302;52.508;13.454;2022-10-15T02:40:33;12.80;99.90
6538;DHT22;3302;52.508;13.454;2022-10-15T02:43:04;12.80;99.90
6538;DHT22;3302;52.508;13.454;2022-10-15T02:45:31;12.80;99.90
6538;DHT22;3302;52.508;13.454;2022-10-15T02:47:56;12.80;99.90
6538;DHT22;3302;52.508;13.454;2022-10-15T02:50:22;12.80;99.90
6538;DHT22;3302;52.508;13.454;2022-10-15T02:52:48;12.80;99.90
6538;DHT22;3302;52.508;13.454;2022-10-15T02:55:13;12.80;99.90
6538;DHT22;3302;52.508;13.454;2022-10-15T02:57:39;12.90;99.90
6538;DHT22;3302;52.508;13.454;2022-10-15T03:00:06;12.90;99.90
6538;DHT22;3302;52.508;13.454;2022-10-15T03:02:31;12.90;99.90
6538;DHT22;3302;52.508;13.454;2022-10-15T03:04:57;12.90;99.90
6538;DHT22;3302;52.508;13.454;2022-10-15T03:07:23;13.00;99.90
6538;DHT22;3302;52.508;13.454;2022-10-15T03:09:48;12.90;99.90
6538;DHT22;3302;52.508;13.454;2022-10-15T03:12:14;12.90;99.90
6538;DHT22;3302;52.508;13.454;2022-10-15T03:14:40;12.90;99.90
6538;DHT22;3302;52.508;13.454;2022-10-15T03:17:06;12.90;99.90
6538;DHT22;3302;52.508;13.454;2022-10-15T03:19:31;12.90;99.90
6538;DHT22;3302;52.508;13.454;2022-10-15T03:21:57;12.90;99.90
6538;DHT22;3302;52.508;13.454;2022-10-15T03:24:23;12.90;99.90
6538;DHT22;3302;52.508;13.454;2022-10-15T03:26:48;12.90;99.90
6538;DHT22;3302;52.508;13.454;2022-10-15T03:29:14;12.90;99.90
6538;DHT22;3302;52.508;13.454;2022-10-15T03:31:40;12.90;99.90
6538;DHT22;3302;52.508;13.454;2022-10-15T03:34:05;12.90;99.90
6538;DHT22;3302;52.508;13.454;2022-10-15T03:36:31;12.90;99.90
6538;DHT22;3302;52.508;13.454;2022-10-15T03:38:57;12.90;99.90
6538;DHT22;3302;52.508;13.454;2022-10-15T03:41:23;12.90;99.90
6538;DHT22;3302;52.508;13.454;2022-10-15T03:43:48;12.80;99.90
6538;DHT22;3302;52.508;13.454;2022-10-15T03:46:14;12.80;99.90
6538;DHT22;3302;52.508;13.454;2022-10-15T03:48:41;12.80;99.90
6538;DHT22;3302;52.508;13.454;2022-10-15T03:51:06;12.80;99.90
6538;DHT22;3302;52.508;13.454;2022-10-15T03:53:32;12.80;99.90
6538;DHT22;3302;52.508;13.454;2022-10-15T03:56:05;12.80;99.90
6538;DHT22;3302;52.508;13.454;2022-10-15T03:58:31;12.80;99.90
6538;DHT22;3302;52.508;13.454;2022-10-15T04:00:56;12.80;99.90
6538;DHT22;3302;52.508;13.454;2022-10-15T04:03:22;12.80;99.90
6538;DHT22;3302;52.508;13.454;2022-10-15T04:05:51;12.80;99.90
6538;DHT22;3302;52.508;13.454;2022-10-15T04:08:18;12.80;99.90
6538;DHT22;3302;52.508;13.454;2022-10-15T04:10:44;12.80;99.90
6538;DHT22;3302;52.508;13.454;2022-10-15T04:13:10;12.70;99.90
6538;DHT22;3302;52.508;13.454;2022-10-15T04:15:39;12.80;99.90
6538;DHT22;3302;52.508;13.454;2022-10-15T04:18:04;12.80;99.90
6538;DHT22;3302;52.508;13.454;2022-10-15T04:20:30;12.80;99.90
6538;DHT22;3302;52.508;13.454;2022-10-15T04:22:56;12.80;99.90
6538;DHT22;3302;52.508;13.454;2022-10-15T04:25:21;12.80;99.90
6538;DHT22;3302;52.508;13.454;2022-10-15T04:27:47;12.80;99.90
6538;DHT22;3302;52.508;13.454;2022-10-15T04:30:13;12.80;99.90
6538;DHT22;3302;52.508;13.454;2022-10-15T04:32:39;12.80;99.90
6538;DHT22;3302;52.508;13.454;2022-10-15T04:35:05;12.80;99.90
6538;DHT22;3302;52.508;13.454;2022-10-15T04:37:34;12.80;99.90
6538;DHT22;3302;52.508;13.454;2022-10-15T04:39:59;12.80;99.90
6538;DHT22;3302;52.508;13.454;2022-10-15T04:42:28;12.80;99.90
6538;DHT22;3302;52.508;13.454;2022-10-15T04:44:54;12.80;99.90
6538;DHT22;3302;52.508;13.454;2022-10-15T04:47:19;12.80;99.90
6538;DHT22;3302;52.508;13.454;2022-10-15T04:49:45;12.80;99.90
6538;DHT22;3302;52.508;13.454;2022-10-15T04:52:11;12.80;99.90
6538;DHT22;3302;52.508;13.454;2022-10-15T04:54:37;12.80;99.90
6538;DHT22;3302;52.508;13.454;2022-10-15T04:57:03;12.80;99.90
6538;DHT22;3302;52.508;13.454;2022-10-15T04:59:29;12.80;99.90
6538;DHT22;3302;52.508;13.454;2022-10-15T05:01:55;12.80;99.90
6538;DHT22;3302;52.508;13.454;2022-10-15T05:04:21;12.80;99.90
6538;DHT22;3302;52.508;13.454;2022-10-15T05:06:47;12.80;99.90
6538;DHT22;3302;52.508;13.454;2022-10-15T05:09:12;12.80;99.90
6538;DHT22;3302;52.508;13.454;2022-10-15T05:11:38;12.80;99.90
6538;DHT22;3302;52.508;13.454;2022-10-15T05:14:04;12.80;99.90
6538;DHT22;3302;52.508;13.454;2022-10-15T05:16:31;12.80;99.90
6538;DHT22;3302;52.508;13.454;2022-10-15T05:19:03;12.80;99.90
6538;DHT22;3302;52.508;13.454;2022-10-15T05:21:29;12.90;99.90
6538;DHT22;3302;52.508;13.454;2022-10-15T05:23:57;12.90;99.90
6538;DHT22;3302;52.508;13.454;2022-10-15T05:26:24;12.90;99.90
6538;DHT22;3302;52.508;13.454;2022-10-15T05:28:50;12.90;99.90
6538;DHT22;3302;52.508;13.454;2022-10-15T05:31:18;12.90;99.90
6538;DHT22;3302;52.508;13.454;2022-10-15T05:33:44;12.90;99.90
6538;DHT22;3302;52.508;13.454;2022-10-15T05:38:44;12.90;99.90
6538;DHT22;3302;52.508;13.454;2022-10-15T05:41:10;12.90;99.90
6538;DHT22;3302;52.508;13.454;2022-10-15T05:43:36;13.00;99.90
6538;DHT22;3302;52.508;13.454;2022-10-15T05:46:02;13.00;99.90
6538;DHT22;3302;52.508;13.454;2022-10-15T05:48:27;13.00;99.90
6538;DHT22;3302;52.508;13.454;2022-10-15T05:50:59;13.00;99.90
6538;DHT22;3302;52.508;13.454;2022-10-15T05:53:25;13.00;99.90
6538;DHT22;3302;52.508;13.454;2022-10-15T05:55:52;13.00;99.90
6538;DHT22;3302;52.508;13.454;2022-10-15T05:58:18;13.00;99.90
6538;DHT22;3302;52.508;13.454;2022-10-15T06:00:44;13.10;99.90
6538;DHT22;3302;52.508;13.454;2022-10-15T06:03:12;13.10;99.90
6538;DHT22;3302;52.508;13.454;2022-10-15T06:05:38;13.10;99.90
6538;DHT22;3302;52.508;13.454;2022-10-15T06:08:04;13.10;99.90
6538;DHT22;3302;52.508;13.454;2022-10-15T06:10:33;13.10;99.90
6538;DHT22;3302;52.508;13.454;2022-10-15T06:12:59;13.10;99.90
6538;DHT22;3302;52.508;13.454;2022-10-15T06:15:25;13.10;99.90
6538;DHT22;3302;52.508;13.454;2022-10-15T06:17:54;13.20;99.90
6538;DHT22;3302;52.508;13.454;2022-10-15T06:20:19;13.20;99.90
6538;DHT22;3302;52.508;13.454;2022-10-15T06:22:45;13.20;99.90
6538;DHT22;3302;52.508;13.454;2022-10-15T06:25:11;13.20;99.90
6538;DHT22;3302;52.508;13.454;2022-10-15T06:27:38;13.20;99.90
6538;DHT22;3302;52.508;13.454;2022-10-15T06:30:04;13.20;99.90
6538;DHT22;3302;52.508;13.454;2022-10-15T06:32:30;13.20;99.90
6538;DHT22;3302;52.508;13.454;2022-10-15T06:34:56;13.30;99.90
6538;DHT22;3302;52.508;13.454;2022-10-15T06:37:22;13.30;99.90
6538;DHT22;3302;52.508;13.454;2022-10-15T06:39:48;13.30;99.90
6538;DHT22;3302;52.508;13.454;2022-10-15T06:42:14;13.30;99.90
6538;DHT22;3302;52.508;13.454;2022-10-15T06:44:39;13.30;99.90
6538;DHT22;3302;52.508;13.454;2022-10-15T06:47:05;13.30;99.90
6538;DHT22;3302;52.508;13.454;2022-10-15T06:49:31;13.30;99.90
6538;DHT22;3302;52.508;13.454;2022-10-15T06:51:58;13.40;99.90
6538;DHT22;3302;52.508;13.454;2022-10-15T06:54:24;13.40;99.90
6538;DHT22;3302;52.508;13.454;2022-10-15T06:56:50;13.40;99.90
6538;DHT22;3302;52.508;13.454;2022-10-15T06:59:16;13.40;99.90
6538;DHT22;3302;52.508;13.454;2022-10-15T07:01:42;13.40;99.90
6538;DHT22;3302;52.508;13.454;2022-10-15T07:04:07;13.40;99.90
6538;DHT22;3302;52.508;13.454;2022-10-15T07:06:34;13.40;99.90
6538;DHT22;3302;52.508;13.454;2022-10-15T07:09:03;13.40;99.90
6538;DHT22;3302;52.508;13.454;2022-10-15T07:11:30;13.40;99.90
6538;DHT22;3302;52.508;13.454;2022-10-15T07:13:55;13.40;99.90
6538;DHT22;3302;52.508;13.454;2022-10-15T07:16:22;13.50;99.90
6538;DHT22;3302;52.508;13.454;2022-10-15T07:18:49;13.60;99.90
6538;DHT22;3302;52.508;13.454;2022-10-15T07:21:14;13.70;99.90
6538;DHT22;3302;52.508;13.454;2022-10-15T07:23:40;13.70;99.90
6538;DHT22;3302;52.508;13.454;2022-10-15T07:26:06;13.80;99.90
6538;DHT22;3302;52.508;13.454;2022-10-15T07:28:31;13.80;99.90
6538;DHT22;3302;52.508;13.454;2022-10-15T07:31:02;13.70;99.90
6538;DHT22;3302;52.508;13.454;2022-10-15T07:33:28;13.80;99.90
6538;DHT22;3302;52.508;13.454;2022-10-15T07:35:53;13.80;99.90
6538;DHT22;3302;52.508;13.454;2022-10-15T07:38:19;13.90;99.90
6538;DHT22;3302;52.508;13.454;2022-10-15T07:40:45;14.00;99.90
6538;DHT22;3302;52.508;13.454;2022-10-15T07:43:10;14.10;99.90
6538;DHT22;3302;52.508;13.454;2022-10-15T07:45:36;14.10;99.90
6538;DHT22;3302;52.508;13.454;2022-10-15T07:48:02;14.00;99.90
6538;DHT22;3302;52.508;13.454;2022-10-15T07:50:28;14.10;99.90
6538;DHT22;3302;52.508;13.454;2022-10-15T07:52:54;14.20;99.90
6538;DHT22;3302;52.508;13.454;2022-10-15T07:55:19;14.30;99.90
6538;DHT22;3302;52.508;13.454;2022-10-15T07:57:45;14.30;99.90
6538;DHT22;3302;52.508;13.454;2022-10-15T08:00:11;14.40;99.90
6538;DHT22;3302;52.508;13.454;2022-10-15T08:02:37;14.50;99.90
6538;DHT22;3302;52.508;13.454;2022-10-15T08:05:02;14.50;99.90
6538;DHT22;3302;52.508;13.454;2022-10-15T08:07:28;14.50;99.90
6538;DHT22;3302;52.508;13.454;2022-10-15T08:09:54;14.50;99.90
6538;DHT22;3302;52.508;13.454;2022-10-15T08:12:20;14.60;99.90
6538;DHT22;3302;52.508;13.454;2022-10-15T08:14:45;14.70;99.90
6538;DHT22;3302;52.508;13.454;2022-10-15T08:17:11;14.70;99.90
6538;DHT22;3302;52.508;13.454;2022-10-15T08:19:37;14.80;99.90
6538;DHT22;3302;52.508;13.454;2022-10-15T08:22:03;14.90;99.90
6538;DHT22;3302;52.508;13.454;2022-10-15T08:24:30;14.90;99.90
6538;DHT22;3302;52.508;13.454;2022-10-15T08:26:58;15.10;99.90
6538;DHT22;3302;52.508;13.454;2022-10-15T08:29:24;15.20;99.90
6538;DHT22;3302;52.508;13.454;2022-10-15T08:31:49;15.10;99.90
6538;DHT22;3302;52.508;13.454;2022-10-15T08:34:15;15.20;99.90
6538;DHT22;3302;52.508;13.454;2022-10-15T08:36:41;15.20;99.90
6538;DHT22;3302;52.508;13.454;2022-10-15T08:39:07;15.30;99.90
6538;DHT22;3302;52.508;13.454;2022-10-15T08:47:19;15.50;99.90
6538;DHT22;3302;52.508;13.454;2022-10-15T08:49:53;15.70;99.90
6538;DHT22;3302;52.508;13.454;2022-10-15T08:54:58;15.90;99.90
6538;DHT22;3302;52.508;13.454;2022-10-15T08:57:40;16.00;99.90
6538;DHT22;3302;52.508;13.454;2022-10-15T09:03:50;16.20;99.90
6538;DHT22;3302;52.508;13.454;2022-10-15T09:05:52;16.10;99.90
6538;DHT22;3302;52.508;13.454;2022-10-15T09:08:34;16.10;99.90
6538;DHT22;3302;52.508;13.454;2022-10-15T09:11:29;16.10;99.90
6538;DHT22;3302;52.508;13.454;2022-10-15T09:13:58;16.10;99.90
6538;DHT22;3302;52.508;13.454;2022-10-15T09:16:28;16.10;99.90
6538;DHT22;3302;52.508;13.454;2022-10-15T09:18:55;16.10;99.90
6538;DHT22;3302;52.508;13.454;2022-10-15T09:21:23;16.10;99.90
6538;DHT22;3302;52.508;13.454;2022-10-15T09:23:59;16.20;99.90
6538;DHT22;3302;52.508;13.454;2022-10-15T09:26:39;16.20;99.90
6538;DHT22;3302;52.508;13.454;2022-10-15T09:29:32;16.10;99.90
6538;DHT22;3302;52.508;13.454;2022-10-15T09:34:40;16.20;99.90
6538;DHT22;3302;52.508;13.454;2022-10-15T09:37:28;16.30;99.90
6538;DHT22;3302;52.508;13.454;2022-10-15T09:42:57;16.30;99.90
6538;DHT22;3302;52.508;13.454;2022-10-15T09:45:24;16.30;99.90
6538;DHT22;3302;52.508;13.454;2022-10-15T09:47:51;16.40;99.90
6538;DHT22;3302;52.508;13.454;2022-10-15T09:50:20;16.50;99.90
6538;DHT22;3302;52.508;13.454;2022-10-15T09:53:24;16.50;99.90
6538;DHT22;3302;52.508;13.454;2022-10-15T09:56:14;16.90;99.90
6538;DHT22;3302;52.508;13.454;2022-10-15T09:58:53;17.00;99.90
6538;DHT22;3302;52.508;13.454;2022-10-15T10:01:22;17.10;99.90
6538;DHT22;3302;52.508;13.454;2022-10-15T10:04:08;16.90;99.90
6538;DHT22;3302;52.508;13.454;2022-10-15T10:06:47;16.80;99.90
6538;DHT22;3302;52.508;13.454;2022-10-15T10:09:18;16.90;99.90
6538;DHT22;3302;52.508;13.454;2022-10-15T10:11:53;16.90;99.90
6538;DHT22;3302;52.508;13.454;2022-10-15T10:14:41;16.90;99.90
6538;DHT22;3302;52.508;13.454;2022-10-15T10:17:15;16.80;99.90
6538;DHT22;3302;52.508;13.454;2022-10-15T10:19:42;16.70;99.90
6538;DHT22;3302;52.508;13.454;2022-10-15T10:22:17;16.80;99.90
6538;DHT22;3302;52.508;13.454;2022-10-15T10:24:45;16.90;99.90
6538;DHT22;3302;52.508;13.454;2022-10-15T10:27:26;17.00;99.90
6538;DHT22;3302;52.508;13.454;2022-10-15T10:30:01;17.00;99.90
6538;DHT22;3302;52.508;13.454;2022-10-15T10:32:33;17.10;99.90
6538;DHT22;3302;52.508;13.454;2022-10-15T10:35:01;17.20;99.90
6538;DHT22;3302;52.508;13.454;2022-10-15T10:37:28;17.20;99.90
6538;DHT22;3302;52.508;13.454;2022-10-15T10:42:47;17.20;99.90
6538;DHT22;3302;52.508;13.454;2022-10-15T10:45:21;17.20;99.90
6538;DHT22;3302;52.508;13.454;2022-10-15T10:47:48;17.20;99.90
6538;DHT22;3302;52.508;13.454;2022-10-15T10:50:28;17.20;99.90
6538;DHT22;3302;52.508;13.454;2022-10-15T10:52:54;17.30;99.90
6538;DHT22;3302;52.508;13.454;2022-10-15T10:55:22;17.40;99.90
6538;DHT22;3302;52.508;13.454;2022-10-15T10:57:55;17.40;99.90
6538;DHT22;3302;52.508;13.454;2022-10-15T11:02:53;17.40;99.90
6538;DHT22;3302;52.508;13.454;2022-10-15T11:05:25;17.40;99.90
6538;DHT22;3302;52.508;13.454;2022-10-15T11:08:18;17.50;99.90
6538;DHT22;3302;52.508;13.454;2022-10-15T11:10:51;17.40;99.90
6538;DHT22;3302;52.508;13.454;2022-10-15T11:13:59;17.40;99.90
6538;DHT22;3302;52.508;13.454;2022-10-15T11:16:49;17.40;99.90
6538;DHT22;3302;52.508;13.454;2022-10-15T11:30:02;17.50;99.90
6538;DHT22;3302;52.508;13.454;2022-10-15T11:35:37;17.60;99.90
6538;DHT22;3302;52.508;13.454;2022-10-15T11:38:27;17.70;99.90
6538;DHT22;3302;52.508;13.454;2022-10-15T11:46:32;17.70;99.90
6538;DHT22;3302;52.508;13.454;2022-10-15T11:49:25;17.70;99.90
6538;DHT22;3302;52.508;13.454;2022-10-15T11:55:07;17.50;99.90
6538;DHT22;3302;52.508;13.454;2022-10-15T11:57:34;17.60;99.90
6538;DHT22;3302;52.508;13.454;2022-10-15T12:02:46;17.80;99.90
6538;DHT22;3302;52.508;13.454;2022-10-15T12:05:20;17.90;99.90
6538;DHT22;3302;52.508;13.454;2022-10-15T12:07:52;17.90;99.90
6538;DHT22;3302;52.508;13.454;2022-10-15T12:10:56;17.90;99.90
6538;DHT22;3302;52.508;13.454;2022-10-15T12:16:19;17.80;99.90
6538;DHT22;3302;52.508;13.454;2022-10-15T12:19:01;17.90;99.90
6538;DHT22;3302;52.508;13.454;2022-10-15T12:23:57;18.00;99.90
6538;DHT22;3302;52.508;13.454;2022-10-15T12:28:54;18.00;99.90
6538;DHT22;3302;52.508;13.454;2022-10-15T12:31:24;17.90;99.90
6538;DHT22;3302;52.508;13.454;2022-10-15T12:33:52;17.90;99.90
6538;DHT22;3302;52.508;13.454;2022-10-15T12:36:25;18.00;99.90
6538;DHT22;3302;52.508;13.454;2022-10-15T12:39:07;18.00;99.90
6538;DHT22;3302;52.508;13.454;2022-10-15T12:41:47;18.00;99.90
6538;DHT22;3302;52.508;13.454;2022-10-15T12:46:49;17.90;99.90
6538;DHT22;3302;52.508;13.454;2022-10-15T12:51:59;17.80;99.90
6538;DHT22;3302;52.508;13.454;2022-10-15T12:54:41;17.80;99.90
6538;DHT22;3302;52.508;13.454;2022-10-15T12:59:56;17.90;99.90
6538;DHT22;3302;52.508;13.454;2022-10-15T13:02:40;17.80;99.90
6538;DHT22;3302;52.508;13.454;2022-10-15T13:05:08;17.70;99.90
6538;DHT22;3302;52.508;13.454;2022-10-15T13:07:38;17.80;99.90
6538;DHT22;3302;52.508;13.454;2022-10-15T13:10:21;17.80;99.90
6538;DHT22;3302;52.508;13.454;2022-10-15T13:12:56;17.90;99.90
6538;DHT22;3302;52.508;13.454;2022-10-15T13:15:25;17.90;99.90
6538;DHT22;3302;52.508;13.454;2022-10-15T13:17:53;17.80;99.90
6538;DHT22;3302;52.508;13.454;2022-10-15T13:20:41;17.80;99.90
6538;DHT22;3302;52.508;13.454;2022-10-15T13:23:25;17.80;99.90
6538;DHT22;3302;52.508;13.454;2022-10-15T13:28:36;17.60;99.90
6538;DHT22;3302;52.508;13.454;2022-10-15T13:31:05;17.60;99.90
6538;DHT22;3302;52.508;13.454;2022-10-15T13:33:38;17.70;99.90
6538;DHT22;3302;52.508;13.454;2022-10-15T13:36:08;17.60;99.90
6538;DHT22;3302;52.508;13.454;2022-10-15T13:38:39;17.70;99.90
6538;DHT22;3302;52.508;13.454;2022-10-15T13:41:06;17.70;99.90
6538;DHT22;3302;52.508;13.454;2022-10-15T13:43:32;17.70;99.90
6538;DHT22;3302;52.508;13.454;2022-10-15T13:45:59;17.70;99.90
6538;DHT22;3302;52.508;13.454;2022-10-15T13:48:31;17.70;99.90
6538;DHT22;3302;52.508;13.454;2022-10-15T13:51:02;17.60;99.90
6538;DHT22;3302;52.508;13.454;2022-10-15T13:53:38;17.60;99.90
6538;DHT22;3302;52.508;13.454;2022-10-15T13:56:26;17.60;99.90
6538;DHT22;3302;52.508;13.454;2022-10-15T13:58:52;17.50;99.90
6538;DHT22;3302;52.508;13.454;2022-10-15T14:01:21;17.50;99.90
6538;DHT22;3302;52.508;13.454;2022-10-15T14:03:55;17.50;99.90
6538;DHT22;3302;52.508;13.454;2022-10-15T14:06:23;17.60;99.90
6538;DHT22;3302;52.508;13.454;2022-10-15T14:08:58;17.70;99.90
6538;DHT22;3302;52.508;13.454;2022-10-15T14:11:24;17.60;99.90
6538;DHT22;3302;52.508;13.454;2022-10-15T14:13:56;17.60;99.90
6538;DHT22;3302;52.508;13.454;2022-10-15T14:16:35;17.80;99.90
6538;DHT22;3302;52.508;13.454;2022-10-15T14:21:31;17.80;99.90
6538;DHT22;3302;52.508;13.454;2022-10-15T14:26:30;17.60;99.90
6538;DHT22;3302;52.508;13.454;2022-10-15T14:28:56;17.60;99.90
6538;DHT22;3302;52.508;13.454;2022-10-15T14:31:29;17.60;99.90
6538;DHT22;3302;52.508;13.454;2022-10-15T14:33:55;17.60;99.90
6538;DHT22;3302;52.508;13.454;2022-10-15T14:36:27;17.60;99.90
6538;DHT22;3302;52.508;13.454;2022-10-15T14:38:54;17.50;99.90
6538;DHT22;3302;52.508;13.454;2022-10-15T14:41:29;17.50;99.90
6538;DHT22;3302;52.508;13.454;2022-10-15T14:44:25;17.60;99.90
6538;DHT22;3302;52.508;13.454;2022-10-15T14:46:58;17.50;99.90
6538;DHT22;3302;52.508;13.454;2022-10-15T14:49:29;17.60;99.90
6538;DHT22;3302;52.508;13.454;2022-10-15T14:52:07;18.00;99.90
6538;DHT22;3302;52.508;13.454;2022-10-15T14:54:39;18.00;99.90
6538;DHT22;3302;52.508;13.454;2022-10-15T14:59:47;18.40;99.90
6538;DHT22;3302;52.508;13.454;2022-10-15T15:02:14;18.00;99.90
6538;DHT22;3302;52.508;13.454;2022-10-15T15:04:50;17.80;99.90
6538;DHT22;3302;52.508;13.454;2022-10-15T15:07:19;17.80;99.90
6538;DHT22;3302;52.508;13.454;2022-10-15T15:09:49;17.70;99.90
6538;DHT22;3302;52.508;13.454;2022-10-15T15:12:23;17.80;99.90
6538;DHT22;3302;52.508;13.454;2022-10-15T15:14:49;17.80;99.90
6538;DHT22;3302;52.508;13.454;2022-10-15T15:17:17;17.70;99.90
6538;DHT22;3302;52.508;13.454;2022-10-15T15:19:43;17.60;99.90
6538;DHT22;3302;52.508;13.454;2022-10-15T15:22:12;17.60;99.90
6538;DHT22;3302;52.508;13.454;2022-10-15T15:24:39;17.60;99.90
6538;DHT22;3302;52.508;13.454;2022-10-15T15:27:05;17.60;99.90
6538;DHT22;3302;52.508;13.454;2022-10-15T15:29:31;17.60;99.90
6538;DHT22;3302;52.508;13.454;2022-10-15T15:31:56;17.60;99.90
6538;DHT22;3302;52.508;13.454;2022-10-15T15:34:22;17.60;99.90
6538;DHT22;3302;52.508;13.454;2022-10-15T15:36:48;17.50;99.90
6538;DHT22;3302;52.508;13.454;2022-10-15T15:39:14;17.50;99.90
6538;DHT22;3302;52.508;13.454;2022-10-15T15:41:40;17.50;99.90
6538;DHT22;3302;52.508;13.454;2022-10-15T15:44:08;17.40;99.90
6538;DHT22;3302;52.508;13.454;2022-10-15T15:46:35;17.30;99.90
6538;DHT22;3302;52.508;13.454;2022-10-15T15:49:01;17.30;99.90
6538;DHT22;3302;52.508;13.454;2022-10-15T15:51:28;17.30;99.90
6538;DHT22;3302;52.508;13.454;2022-10-15T15:53:55;17.20;99.90
6538;DHT22;3302;52.508;13.454;2022-10-15T15:56:21;17.10;99.90
6538;DHT22;3302;52.508;13.454;2022-10-15T15:58:48;17.10;99.90
6538;DHT22;3302;52.508;13.454;2022-10-15T16:01:17;17.00;99.90
6538;DHT22;3302;52.508;13.454;2022-10-15T16:03:44;16.90;99.90
6538;DHT22;3302;52.508;13.454;2022-10-15T16:06:10;16.90;99.90
6538;DHT22;3302;52.508;13.454;2022-10-15T16:08:36;16.80;99.90
6538;DHT22;3302;52.508;13.454;2022-10-15T16:11:04;16.80;99.90
6538;DHT22;3302;52.508;13.454;2022-10-15T16:13:31;16.70;99.90
6538;DHT22;3302;52.508;13.454;2022-10-15T16:16:06;16.60;99.90
6538;DHT22;3302;52.508;13.454;2022-10-15T16:18:32;16.60;99.90
6538;DHT22;3302;52.508;13.454;2022-10-15T16:20:58;16.60;99.90
6538;DHT22;3302;52.508;13.454;2022-10-15T16:23:24;16.60;99.90
6538;DHT22;3302;52.508;13.454;2022-10-15T16:25:49;16.60;99.90
6538;DHT22;3302;52.508;13.454;2022-10-15T16:28:15;16.50;99.90
6538;DHT22;3302;52.508;13.454;2022-10-15T16:30:41;16.50;99.90
6538;DHT22;3302;52.508;13.454;2022-10-15T16:33:07;16.40;99.90
6538;DHT22;3302;52.508;13.454;2022-10-15T16:35:32;16.40;99.90
6538;DHT22;3302;52.508;13.454;2022-10-15T16:37:58;16.40;99.90
6538;DHT22;3302;52.508;13.454;2022-10-15T16:40:25;16.30;99.90
6538;DHT22;3302;52.508;13.454;2022-10-15T16:42:50;16.20;99.90
6538;DHT22;3302;52.508;13.454;2022-10-15T16:45:16;16.20;99.90
6538;DHT22;3302;52.508;13.454;2022-10-15T16:47:42;16.10;99.90
6538;DHT22;3302;52.508;13.454;2022-10-15T16:50:08;16.10;99.90
6538;DHT22;3302;52.508;13.454;2022-10-15T16:52:34;16.10;99.90
6538;DHT22;3302;52.508;13.454;2022-10-15T16:55:00;16.00;99.90
6538;DHT22;3302;52.508;13.454;2022-10-15T16:57:26;16.00;99.90
6538;DHT22;3302;52.508;13.454;2022-10-15T16:59:51;16.00;99.90
6538;DHT22;3302;52.508;13.454;2022-10-15T17:02:17;15.90;99.90
6538;DHT22;3302;52.508;13.454;2022-10-15T17:04:43;15.80;99.90
6538;DHT22;3302;52.508;13.454;2022-10-15T17:07:08;15.80;99.90
6538;DHT22;3302;52.508;13.454;2022-10-15T17:09:34;15.80;99.90
6538;DHT22;3302;52.508;13.454;2022-10-15T17:12:00;15.70;99.90
6538;DHT22;3302;52.508;13.454;2022-10-15T17:14:26;15.70;99.90
6538;DHT22;3302;52.508;13.454;2022-10-15T17:16:52;15.80;99.90
6538;DHT22;3302;52.508;13.454;2022-10-15T17:19:20;15.70;99.90
6538;DHT22;3302;52.508;13.454;2022-10-15T17:21:46;15.60;99.90
6538;DHT22;3302;52.508;13.454;2022-10-15T17:24:14;15.60;99.90
6538;DHT22;3302;52.508;13.454;2022-10-15T17:26:41;15.60;99.90
6538;DHT22;3302;52.508;13.454;2022-10-15T17:29:10;15.50;99.90
6538;DHT22;3302;52.508;13.454;2022-10-15T17:31:37;15.50;99.90
6538;DHT22;3302;52.508;13.454;2022-10-15T17:34:05;15.40;99.90
6538;DHT22;3302;52.508;13.454;2022-10-15T17:36:35;15.50;99.90